createdAt,value
2023-01-15T00:01:16.148Z,988.52
2023-01-15T00:04:23.989Z,988.55
2023-01-15T00:07:31.023Z,988.63
2023-01-15T00:10:38.676Z,988.55
2023-01-15T00:13:45.979Z,988.57
2023-01-15T00:16:53.356Z,988.44
2023-01-15T00:20:00.818Z,988.41
2023-01-15T00:23:08.468Z,988.49
2023-01-15T00:26:16.052Z,988.53
2023-01-15T00:29:24.009Z,988.48
2023-01-15T00:32:31.527Z,988.45
2023-01-15T00:35:39.172Z,988.41
2023-01-15T00:38:46.906Z,988.30
2023-01-15T00:41:53.959Z,988.33
2023-01-15T00:45:01.306Z,988.23
2023-01-15T00:48:09.371Z,988.45
2023-01-15T00:51:16.443Z,988.45
2023-01-15T00:54:24.241Z,988.55
2023-01-15T00:57:31.981Z,988.67
2023-01-15T01:00:39.052Z,988.74
2023-01-15T01:03:46.973Z,988.73
2023-01-15T01:06:54.433Z,988.91
2023-01-15T01:10:01.935Z,989.16
2023-01-15T01:13:09.335Z,989.27
2023-01-15T01:16:16.446Z,989.38
2023-01-15T01:19:24.017Z,989.69
2023-01-15T01:22:31.437Z,989.83
2023-01-15T01:25:38.677Z,989.82
2023-01-15T01:28:45.958Z,989.92
2023-01-15T01:31:53.278Z,989.99
2023-01-15T01:35:01.132Z,990.04
2023-01-15T01:38:08.561Z,990.04
2023-01-15T01:41:11.397Z,990.13
2023-01-15T01:44:19.886Z,990.22
2023-01-15T01:47:27.850Z,990.25
2023-01-15T01:50:36.371Z,990.24
2023-01-15T01:53:45.162Z,990.47
2023-01-15T01:56:53.226Z,990.55
2023-01-15T02:00:01.905Z,990.59
2023-01-15T02:03:10.560Z,990.63
2023-01-15T02:06:19.014Z,990.73
2023-01-15T02:09:27.520Z,990.71
2023-01-15T02:12:36.556Z,990.92
2023-01-15T02:15:44.445Z,990.70
2023-01-15T02:18:53.288Z,990.66
2023-01-15T02:22:01.665Z,990.77
2023-01-15T02:25:10.520Z,990.69
2023-01-15T02:28:18.836Z,990.73
2023-01-15T02:31:27.390Z,990.91
2023-01-15T02:34:35.798Z,990.88
2023-01-15T02:37:44.528Z,990.77
2023-01-15T02:40:52.864Z,990.87
2023-01-15T02:44:01.119Z,990.85
2023-01-15T02:47:09.234Z,990.90
2023-01-15T02:50:18.042Z,991.02
2023-01-15T02:53:26.429Z,991.00
2023-01-15T02:56:34.890Z,991.10
2023-01-15T02:59:43.911Z,991.10
2023-01-15T03:02:52.316Z,991.28
2023-01-15T03:06:00.606Z,991.16
2023-01-15T03:09:09.452Z,991.12
2023-01-15T03:12:17.744Z,991.04
2023-01-15T03:15:26.134Z,991.01
2023-01-15T03:18:35.061Z,991.01
2023-01-15T03:21:43.224Z,991.01
2023-01-15T03:24:51.960Z,990.98
2023-01-15T03:28:00.567Z,990.90
2023-01-15T03:31:08.682Z,990.83
2023-01-15T03:34:17.736Z,990.92
2023-01-15T03:37:26.627Z,990.71
2023-01-15T03:40:34.697Z,990.69
2023-01-15T03:43:43.716Z,990.68
2023-01-15T03:46:52.975Z,990.68
2023-01-15T03:50:01.028Z,990.70
2023-01-15T03:53:09.805Z,990.72
2023-01-15T03:56:18.039Z,990.69
2023-01-15T03:59:26.421Z,990.72
2023-01-15T04:02:35.045Z,990.80
2023-01-15T04:05:43.401Z,990.68
2023-01-15T04:08:52.133Z,990.65
2023-01-15T04:12:00.597Z,990.41
2023-01-15T04:15:09.043Z,990.43
2023-01-15T04:18:17.860Z,990.49
2023-01-15T04:21:26.113Z,990.45
2023-01-15T04:24:34.554Z,990.34
2023-01-15T04:27:43.451Z,990.29
2023-01-15T04:30:51.884Z,990.24
2023-01-15T04:34:00.249Z,990.13
2023-01-15T04:37:09.146Z,990.15
2023-01-15T04:40:17.185Z,989.98
2023-01-15T04:43:25.936Z,990.13
2023-01-15T04:46:34.505Z,990.13
2023-01-15T04:49:42.550Z,990.11
2023-01-15T04:52:51.327Z,990.02
2023-01-15T04:55:59.994Z,990.12
2023-01-15T04:59:07.942Z,989.94
2023-01-15T05:02:16.709Z,989.92
2023-01-15T05:05:25.148Z,989.85
2023-01-15T05:08:33.974Z,989.92
2023-01-15T05:11:42.403Z,989.79
2023-01-15T05:14:50.423Z,989.70
2023-01-15T05:17:58.763Z,989.70
2023-01-15T05:21:07.127Z,989.80
2023-01-15T05:24:15.675Z,989.98
2023-01-15T05:27:24.495Z,989.85
2023-01-15T05:30:32.933Z,989.92
2023-01-15T05:33:41.288Z,989.86
2023-01-15T05:36:49.977Z,989.98
2023-01-15T05:39:58.054Z,989.97
2023-01-15T05:43:06.709Z,989.89
2023-01-15T05:46:15.586Z,989.94
2023-01-15T05:49:23.654Z,989.95
2023-01-15T05:52:32.499Z,990.03
2023-01-15T05:55:40.950Z,989.87
2023-01-15T05:58:48.971Z,989.92
2023-01-15T06:01:57.974Z,989.84
2023-01-15T06:05:06.221Z,989.95
2023-01-15T06:08:14.400Z,990.07
2023-01-15T06:11:23.187Z,990.05
2023-01-15T06:14:31.716Z,990.06
2023-01-15T06:17:40.013Z,989.96
2023-01-15T06:20:49.028Z,989.93
2023-01-15T06:23:57.321Z,990.07
2023-01-15T06:27:05.898Z,990.18
2023-01-15T06:30:14.736Z,990.22
2023-01-15T06:33:23.235Z,990.30
2023-01-15T06:36:31.604Z,990.32
2023-01-15T06:39:40.724Z,990.36
2023-01-15T06:42:49.210Z,990.36
2023-01-15T06:45:57.676Z,990.36
2023-01-15T06:49:06.016Z,990.38
2023-01-15T06:52:15.099Z,990.37
2023-01-15T06:55:23.497Z,990.39
2023-01-15T06:58:32.045Z,990.36
2023-01-15T07:01:40.878Z,990.43
2023-01-15T07:04:49.546Z,990.50
2023-01-15T07:07:58.032Z,990.34
2023-01-15T07:11:06.768Z,990.38
2023-01-15T07:14:14.795Z,990.38
2023-01-15T07:17:23.671Z,990.41
2023-01-15T07:20:32.435Z,990.50
2023-01-15T07:23:40.506Z,990.37
2023-01-15T07:26:49.390Z,990.40
2023-01-15T07:29:57.927Z,990.39
2023-01-15T07:33:05.915Z,990.31
2023-01-15T07:36:14.825Z,990.27
2023-01-15T07:39:23.689Z,990.19
2023-01-15T07:42:31.674Z,990.25
2023-01-15T07:45:40.607Z,990.39
2023-01-15T07:48:48.932Z,990.36
2023-01-15T07:51:57.429Z,990.38
2023-01-15T07:55:05.953Z,990.36
2023-01-15T07:58:15.191Z,990.32
2023-01-15T08:01:23.437Z,990.37
2023-01-15T08:04:31.650Z,990.40
2023-01-15T08:07:40.355Z,990.52
2023-01-15T08:10:49.207Z,990.48
2023-01-15T08:13:57.269Z,990.54
2023-01-15T08:17:05.369Z,990.56
2023-01-15T08:20:14.300Z,990.52
2023-01-15T08:23:22.397Z,990.54
2023-01-15T08:26:30.868Z,990.51
2023-01-15T08:29:39.712Z,990.44
2023-01-15T08:32:47.743Z,990.58
2023-01-15T08:35:56.545Z,990.44
2023-01-15T08:39:05.133Z,990.52
2023-01-15T08:42:13.293Z,990.62
2023-01-15T08:45:22.447Z,990.68
2023-01-15T08:48:30.791Z,990.73
2023-01-15T08:51:40.829Z,990.68
2023-01-15T08:54:49.737Z,990.66
2023-01-15T08:57:58.524Z,990.57
2023-01-15T09:01:07.858Z,990.57
2023-01-15T09:04:16.379Z,990.52
2023-01-15T09:07:26.752Z,990.50
2023-01-15T09:10:35.038Z,990.47
2023-01-15T09:13:44.455Z,990.48
2023-01-15T09:16:52.837Z,990.46
2023-01-15T09:20:01.306Z,990.60
2023-01-15T09:23:09.939Z,990.76
2023-01-15T09:26:18.952Z,990.73
2023-01-15T09:29:27.120Z,990.73
2023-01-15T09:32:35.584Z,990.85
2023-01-15T09:35:44.629Z,990.92
2023-01-15T09:38:52.856Z,990.88
2023-01-15T09:42:01.687Z,990.83
2023-01-15T09:45:10.067Z,990.84
2023-01-15T09:48:18.343Z,990.88
2023-01-15T09:51:26.673Z,990.95
2023-01-15T09:54:34.420Z,990.86
2023-01-15T09:57:41.981Z,990.78
2023-01-15T10:00:50.000Z,990.88
2023-01-15T10:03:57.851Z,990.86
2023-01-15T10:07:05.689Z,990.81
2023-01-15T10:10:13.814Z,990.79
2023-01-15T10:13:21.577Z,990.82
2023-01-15T10:16:29.365Z,990.81
2023-01-15T10:19:44.564Z,990.72
2023-01-15T10:22:41.425Z,990.80
2023-01-15T10:25:49.307Z,990.88
2023-01-15T10:28:56.951Z,990.87
2023-01-15T10:32:04.988Z,991.17
2023-01-15T10:35:12.606Z,990.82
2023-01-15T10:38:20.419Z,990.94
2023-01-15T10:41:28.357Z,990.91
2023-01-15T10:44:36.071Z,990.81
2023-01-15T10:47:43.883Z,990.81
2023-01-15T10:50:52.039Z,991.00
2023-01-15T10:53:59.503Z,990.97
2023-01-15T10:57:07.577Z,991.17
2023-01-15T11:00:15.703Z,991.01
2023-01-15T11:03:23.275Z,991.03
2023-01-15T11:06:31.561Z,991.02
2023-01-15T11:09:39.761Z,990.98
2023-01-15T11:12:47.255Z,991.01
2023-01-15T11:15:55.370Z,990.97
2023-01-15T11:19:03.782Z,990.79
2023-01-15T11:22:11.262Z,990.85
2023-01-15T11:25:19.562Z,990.73
2023-01-15T11:28:27.363Z,990.91
2023-01-15T11:31:35.002Z,990.91
2023-01-15T11:34:43.160Z,990.91
2023-01-15T11:37:50.915Z,991.01
2023-01-15T11:40:58.742Z,990.96
2023-01-15T11:44:06.535Z,990.98
2023-01-15T11:47:14.697Z,990.99
2023-01-15T11:50:22.325Z,990.96
2023-01-15T11:53:29.880Z,991.02
2023-01-15T11:56:38.196Z,990.90
2023-01-15T11:59:46.419Z,990.77
2023-01-15T12:02:53.758Z,990.71
2023-01-15T12:06:02.221Z,990.88
2023-01-15T12:09:09.842Z,990.85
2023-01-15T12:12:17.579Z,990.79
2023-01-15T12:15:25.820Z,990.79
2023-01-15T12:18:33.677Z,990.87
2023-01-15T12:21:41.694Z,990.88
2023-01-15T12:24:49.963Z,990.86
2023-01-15T12:27:57.830Z,990.82
2023-01-15T12:31:05.591Z,990.75
2023-01-15T12:34:13.661Z,990.78
2023-01-15T12:37:21.844Z,990.77
2023-01-15T12:40:29.694Z,990.70
2023-01-15T12:43:37.459Z,990.61
2023-01-15T12:46:45.550Z,990.71
2023-01-15T12:49:53.380Z,990.71
2023-01-15T12:53:01.067Z,990.75
2023-01-15T12:56:09.136Z,990.76
2023-01-15T12:59:17.097Z,990.73
2023-01-15T13:02:24.931Z,990.69
2023-01-15T13:05:33.364Z,990.77
2023-01-15T13:08:41.322Z,990.76
2023-01-15T13:11:49.106Z,990.75
2023-01-15T13:14:57.189Z,990.82
2023-01-15T13:18:04.629Z,990.74
2023-01-15T13:21:13.077Z,990.81
2023-01-15T13:24:21.334Z,990.77
2023-01-15T13:27:28.600Z,990.82
2023-01-15T13:30:36.819Z,990.73
2023-01-15T13:33:44.762Z,990.77
2023-01-15T13:36:52.567Z,990.78
2023-01-15T13:40:01.006Z,990.81
2023-01-15T13:43:08.689Z,990.82
2023-01-15T13:46:16.557Z,990.95
2023-01-15T13:49:24.339Z,990.88
2023-01-15T13:52:32.058Z,990.96
2023-01-15T13:55:39.747Z,990.97
2023-01-15T13:58:47.526Z,991.03
2023-01-15T14:01:55.882Z,991.09
2023-01-15T14:05:03.400Z,991.01
2023-01-15T14:08:10.969Z,991.01
2023-01-15T14:11:19.192Z,990.89
2023-01-15T14:14:27.451Z,990.92
2023-01-15T14:17:34.910Z,990.90
2023-01-15T14:20:43.212Z,990.95
2023-01-15T14:23:51.386Z,990.86
2023-01-15T14:26:58.867Z,990.90
2023-01-15T14:30:07.103Z,990.98
2023-01-15T14:33:14.916Z,991.02
2023-01-15T14:36:22.788Z,990.99
2023-01-15T14:39:31.085Z,991.18
2023-01-15T14:42:38.455Z,991.15
2023-01-15T14:45:46.620Z,991.15
2023-01-15T14:48:54.931Z,991.25
2023-01-15T14:52:02.931Z,991.28
2023-01-15T14:55:10.660Z,991.22
2023-01-15T14:58:18.319Z,991.35
2023-01-15T15:01:26.251Z,991.27
2023-01-15T15:04:34.072Z,991.28
2023-01-15T15:07:41.856Z,991.22
2023-01-15T15:10:49.793Z,991.25
2023-01-15T15:13:57.764Z,991.26
2023-01-15T15:17:05.697Z,991.30
2023-01-15T15:20:13.822Z,991.35
2023-01-15T15:23:21.594Z,991.30
2023-01-15T15:26:29.415Z,991.35
2023-01-15T15:29:38.329Z,991.31
2023-01-15T15:32:46.233Z,991.34
2023-01-15T15:35:53.820Z,991.38
2023-01-15T15:39:02.505Z,991.32
2023-01-15T15:42:10.102Z,991.37
2023-01-15T15:45:18.272Z,991.41
2023-01-15T15:48:26.935Z,991.43
2023-01-15T15:51:34.472Z,991.49
2023-01-15T15:54:42.658Z,991.51
2023-01-15T15:57:50.480Z,991.56
2023-01-15T16:00:58.836Z,991.45
2023-01-15T16:04:07.175Z,991.37
2023-01-15T16:07:15.048Z,991.48
2023-01-15T16:10:25.122Z,991.33
2023-01-15T16:13:32.845Z,991.35
2023-01-15T16:16:40.663Z,991.39
2023-01-15T16:19:48.875Z,991.45
2023-01-15T16:22:57.034Z,991.45
2023-01-15T16:26:05.242Z,991.56
2023-01-15T16:29:13.131Z,991.53
2023-01-15T16:32:20.805Z,991.41
2023-01-15T16:35:29.644Z,991.44
2023-01-15T16:38:39.497Z,991.46
2023-01-15T16:41:47.587Z,991.61
2023-01-15T16:44:55.795Z,991.61
2023-01-15T16:48:03.333Z,991.51
2023-01-15T16:51:11.620Z,991.69
2023-01-15T16:54:19.154Z,991.72
2023-01-15T16:57:26.529Z,991.63
2023-01-15T17:00:34.532Z,991.63
2023-01-15T17:03:42.447Z,991.62
2023-01-15T17:06:49.743Z,991.73
2023-01-15T17:09:58.230Z,991.78
2023-01-15T17:13:06.051Z,991.71
2023-01-15T17:16:13.753Z,991.77
2023-01-15T17:19:21.843Z,991.72
2023-01-15T17:22:29.603Z,991.74
2023-01-15T17:25:37.304Z,991.79
2023-01-15T17:28:45.209Z,991.86
2023-01-15T17:31:52.885Z,991.81
2023-01-15T17:35:00.935Z,991.83
2023-01-15T17:38:08.903Z,991.78
2023-01-15T17:41:16.955Z,991.87
2023-01-15T17:44:24.697Z,991.89
2023-01-15T17:47:32.485Z,991.90
2023-01-15T17:50:40.815Z,991.90
2023-01-15T17:53:49.336Z,991.87
2023-01-15T17:56:57.068Z,991.99
2023-01-15T18:00:05.661Z,992.03
2023-01-15T18:03:14.703Z,992.08
2023-01-15T18:06:22.195Z,992.10
2023-01-15T18:09:30.326Z,992.05
2023-01-15T18:12:37.878Z,992.19
2023-01-15T18:15:46.012Z,992.00
2023-01-15T18:18:54.162Z,992.00
2023-01-15T18:22:02.028Z,992.09
2023-01-15T18:25:09.797Z,992.19
2023-01-15T18:28:17.486Z,992.13
2023-01-15T18:31:25.897Z,992.15
2023-01-15T18:34:33.537Z,992.19
2023-01-15T18:37:41.268Z,992.22
2023-01-15T18:40:50.224Z,992.26
2023-01-15T18:43:58.528Z,992.29
2023-01-15T18:47:06.141Z,992.23
2023-01-15T18:50:14.158Z,992.26
2023-01-15T18:53:21.712Z,992.16
2023-01-15T18:56:29.873Z,992.27
2023-01-15T18:59:37.775Z,992.27
2023-01-15T19:02:45.277Z,992.24
2023-01-15T19:05:53.479Z,992.23
2023-01-15T19:09:01.511Z,992.19
2023-01-15T19:12:08.875Z,992.19
2023-01-15T19:15:16.705Z,992.23
2023-01-15T19:18:24.084Z,992.21
2023-01-15T19:21:32.195Z,992.26
2023-01-15T19:24:41.131Z,992.28
2023-01-15T19:27:49.025Z,992.22
2023-01-15T19:30:56.609Z,992.26
2023-01-15T19:34:31.554Z,992.16
2023-01-15T19:37:09.728Z,992.29
2023-01-15T19:40:17.647Z,992.21
2023-01-15T19:43:25.555Z,992.19
2023-01-15T19:46:33.334Z,992.29
2023-01-15T19:49:40.827Z,992.30
2023-01-15T19:52:48.917Z,992.35
2023-01-15T19:55:57.042Z,992.25
2023-01-15T19:59:04.593Z,992.38
2023-01-15T20:02:12.550Z,992.33
2023-01-15T20:05:20.535Z,992.32
2023-01-15T20:08:27.914Z,992.44
2023-01-15T20:11:35.693Z,992.34
2023-01-15T20:14:43.868Z,992.28
2023-01-15T20:17:52.281Z,992.32
2023-01-15T20:21:00.346Z,992.38
2023-01-15T20:24:07.982Z,992.34
2023-01-15T20:27:15.839Z,992.36
2023-01-15T20:30:23.952Z,992.34
2023-01-15T20:33:31.844Z,992.33
2023-01-15T20:36:39.780Z,992.41
2023-01-15T20:39:47.923Z,992.36
2023-01-15T20:42:55.691Z,992.47
2023-01-15T20:46:03.515Z,992.48
2023-01-15T20:49:11.214Z,992.46
2023-01-15T20:52:19.614Z,992.50
2023-01-15T20:55:27.381Z,992.48
2023-01-15T20:58:34.818Z,992.51
2023-01-15T21:01:42.758Z,992.49
2023-01-15T21:04:50.645Z,992.56
2023-01-15T21:07:58.126Z,992.52
2023-01-15T21:11:06.452Z,992.47
2023-01-15T21:14:14.835Z,992.51
2023-01-15T21:17:22.817Z,992.46
2023-01-15T21:20:30.600Z,992.49
2023-01-15T21:23:38.445Z,992.47
2023-01-15T21:26:46.610Z,992.48
2023-01-15T21:29:54.856Z,992.53
2023-01-15T21:33:02.727Z,992.48
2023-01-15T21:36:10.188Z,992.42
2023-01-15T21:39:18.558Z,992.40
2023-01-15T21:42:26.535Z,992.51
2023-01-15T21:45:34.481Z,992.37
2023-01-15T21:48:42.140Z,992.36
2023-01-15T21:51:50.411Z,992.33
2023-01-15T21:54:58.091Z,992.39
2023-01-15T21:58:05.754Z,992.37
2023-01-15T22:01:14.013Z,992.27
2023-01-15T22:04:22.652Z,992.35
2023-01-15T22:07:30.478Z,992.37
2023-01-15T22:10:38.535Z,992.41
2023-01-15T22:13:45.949Z,992.47
2023-01-15T22:16:54.292Z,992.47
2023-01-15T22:20:02.030Z,992.45
2023-01-15T22:23:09.915Z,992.38
2023-01-15T22:26:18.106Z,992.41
2023-01-15T22:29:26.208Z,992.53
2023-01-15T22:32:33.639Z,992.48
2023-01-15T22:35:41.820Z,992.54
2023-01-15T22:38:49.237Z,992.54
2023-01-15T22:41:56.999Z,992.52
2023-01-15T22:45:04.828Z,992.44
2023-01-15T22:48:12.904Z,992.35
2023-01-15T22:51:20.644Z,992.31
2023-01-15T22:54:28.074Z,992.28
2023-01-15T22:57:35.996Z,992.19
2023-01-15T23:00:43.850Z,992.12
2023-01-15T23:03:51.643Z,992.15
2023-01-15T23:06:59.577Z,992.10
2023-01-15T23:10:07.919Z,992.18
2023-01-15T23:13:15.513Z,992.05
2023-01-15T23:16:23.312Z,991.97
2023-01-15T23:19:31.245Z,991.99
2023-01-15T23:22:38.570Z,991.94
2023-01-15T23:25:46.632Z,991.94
2023-01-15T23:28:54.306Z,991.93
2023-01-15T23:32:01.775Z,991.91
2023-01-15T23:35:09.708Z,991.85
2023-01-15T23:38:17.357Z,991.80
2023-01-15T23:41:25.371Z,991.77
2023-01-15T23:44:33.519Z,991.72
2023-01-15T23:47:41.166Z,991.71
2023-01-15T23:50:48.871Z,991.64
2023-01-15T23:53:56.527Z,991.67
2023-01-15T23:57:04.591Z,991.60
